• Join FlightAware (Why Join?)
  • Login
  • US Flag 
Rudolph Flight #1: Scheduled 
10:10PM EST


 

Airport Tracker/Info


-or-


 

Live Flight TrackerFlight Track Log ✈ N415JA ✈ 18-Feb-2014 ✈ KMIA - MUHA / HAV

Flight Track Log - Related Links

Times and Time Zones

All times are in EST time to prevent confusion due to time zone crossing. See the N415JA flight status page for this flight to view local times or setup timezone preferences in your user account.

Time Position Orientation Groundspeed Altitude Reporting Facility
EST Latitude Longitude Course Direction KTS MPH feet Rate Location/Type
12:28PM 25.7661 -80.2089 114° Southeast 233 268 4,700  Level Miami Center
12:29PM 25.7025 -80.1658 149° Southeast 275 316 7,000 2,640 Climbing Miami Center
12:30PM 25.6150 -80.1586 176° South 283 326 10,600 2,820 Climbing Miami Center
12:30PM 25.5897 -80.1625 188° South 305 351 11,100 2,100 Climbing Miami Center
12:31PM 25.5136 -80.2067 208° Southwest 324 373 13,400 2,040 Climbing Miami Center
12:32PM 25.4289 -80.2572 208° Southwest 341 392 15,200 1,920 Climbing Miami Center
12:33PM 25.3500 -80.3239 217° Southwest 352 405 17,300 2,100 Climbing Miami Center
12:34PM 25.2914 -80.4164 235° Southwest 358 412 19,400 1,980 Climbing Miami Center
12:35PM 25.2347 -80.5136 237° Southwest 369 425 21,300 1,260 Climbing Miami Center
12:36PM 25.1800 -80.6083 237° Southwest 375 432 22,000 300 Climbing Miami Center
12:37PM 25.1233 -80.7031 237° Southwest 375 432 22,000  Level Miami Center
12:38PM 25.0667 -80.7975 236° Southwest 375 432 22,000  Level Miami Center
12:39PM 25.0097 -80.8872 235° Southwest 375 432 22,000  Level Miami Center
12:40PM 24.9550 -80.9817 237° Southwest 369 425 22,000  Level Miami Center
12:41PM 24.8983 -81.0692 234° Southwest 363 418 22,000  Level Miami Center
12:42PM 24.8433 -81.1633 237° Southwest 363 418 22,000  Level Miami Center
12:43PM 24.7864 -81.2528 235° Southwest 369 425 22,000  Level Miami Center
12:44PM 24.7314 -81.3447 237° Southwest 369 425 22,000  Level Miami Center
12:45PM 24.6742 -81.4386 236° Southwest 369 425 22,000  Level Miami Center
12:46PM 24.6169 -81.5325 236° Southwest 369 425 22,000  Level Miami Center
12:47PM 24.5622 -81.6125 233° Southwest 369 425 22,000  Level Miami Center
12:48PM 24.5003 -81.7219 238° Southwest 374 430 22,000  Level Miami Center
12:49PM 24.4364 -81.8175 234° Southwest 387 445 22,000  Level Miami Center
12:50PM 24.3792 -81.9067 235° Southwest 382 440 22,000  Level Miami Center
12:51PM 24.3217 -82.0044 237° Southwest 377 434 22,000  Level Miami Center
12:52PM 24.2642 -82.0978 236° Southwest 382 440 22,000  Level Miami Center
12:53PM 24.2083 -82.1956 238° Southwest 382 440 22,000  Level Miami Center
12:54PM 24.1467 -82.2861 233° Southwest 382 440 22,000  Level Miami Center
12:55PM 24.0850 -82.3767 233° Southwest 382 440 22,000  Level Miami Center
12:56PM 24.0189 -82.4669 231° Southwest 382 440 22,000  Level Miami Center
12:58PM 23.9343 -82.5073 173° South  Level FlightAware Approximate
01:05PM 23.3362 -82.4286 175° South  Level FlightAware Approximate
01:06PM 23.2505 -82.4201 175° South  Level FlightAware Approximate
01:07PM 23.1646 -82.4167 180° South  Level FlightAware Approximate
01:08PM 23.0794 -82.4059 170° South  Level FlightAware Approximate
01:09PM 22.9938 -82.4000 180° South  Level FlightAware Approximate
01:10PM 22.9891 -82.4091 180° South  Level Estimated
01:11PM 22.9891 -82.4091 180° South  Level Estimated
01:12PM 22.9891 -82.4091 180° South  Level Estimated
01:13PM 22.9891 -82.4091 180° South  Level Estimated
01:14PM 22.9891 -82.4091 180° South  Level Estimated
01:15PM 22.9891 -82.4091 180° South  Level Estimated
01:16PM 22.9891 -82.4091 180° South  Level Estimated
01:17PM 22.9891 -82.4091 180° South  Level Estimated
01:18PM 22.9891 -82.4091 180° South  Level Estimated
01:19PM 22.9891 -82.4091 180° South  Level Estimated
01:20PM 22.9891 -82.4091 180° South  Level Estimated
01:21PM 22.9891 -82.4091 180° South  Level Estimated
01:22PM 22.9891 -82.4091 180° South  Level Estimated
01:23PM 22.9891 -82.4091 180° South  Level Estimated
01:24PM 22.9891 -82.4091 180° South  Level Estimated